sensor_id;sensor_type;location;lat;lon;timestamp;temperature;humidity
76291;DHT22;65100;46.884;17.410;2023-06-14T00:01:01;12.10;77.70
76291;DHT22;65100;46.884;17.410;2023-06-14T00:03:29;12.04;77.13
76291;DHT22;65100;46.884;17.410;2023-06-14T00:05:54;11.86;77.96
76291;DHT22;65100;46.884;17.410;2023-06-14T00:08:20;11.58;78.78
76291;DHT22;65100;46.884;17.410;2023-06-14T00:10:48;10.95;81.67
76291;DHT22;65100;46.884;17.410;2023-06-14T00:13:14;11.31;80.92
76291;DHT22;65100;46.884;17.410;2023-06-14T00:15:39;11.14;80.97
76291;DHT22;65100;46.884;17.410;2023-06-14T00:18:05;11.34;80.59
76291;DHT22;65100;46.884;17.410;2023-06-14T00:20:32;11.46;79.62
76291;DHT22;65100;46.884;17.410;2023-06-14T00:23:01;11.85;79.26
76291;DHT22;65100;46.884;17.410;2023-06-14T00:25:27;11.92;78.34
76291;DHT22;65100;46.884;17.410;2023-06-14T00:27:54;11.99;78.94
76291;DHT22;65100;46.884;17.410;2023-06-14T00:30:19;11.83;77.72
76291;DHT22;65100;46.884;17.410;2023-06-14T00:32:45;11.70;78.15
76291;DHT22;65100;46.884;17.410;2023-06-14T00:35:11;11.59;78.13
76291;DHT22;65100;46.884;17.410;2023-06-14T00:37:37;11.66;77.50
76291;DHT22;65100;46.884;17.410;2023-06-14T00:40:03;11.75;79.04
76291;DHT22;65100;46.884;17.410;2023-06-14T00:42:29;11.61;78.25
76291;DHT22;65100;46.884;17.410;2023-06-14T00:44:55;11.48;79.79
76291;DHT22;65100;46.884;17.410;2023-06-14T00:47:21;11.72;79.21
76291;DHT22;65100;46.884;17.410;2023-06-14T00:49:47;11.75;78.28
76291;DHT22;65100;46.884;17.410;2023-06-14T00:52:16;11.76;77.71
76291;DHT22;65100;46.884;17.410;2023-06-14T00:54:43;11.83;79.13
76291;DHT22;65100;46.884;17.410;2023-06-14T00:57:12;11.76;78.50
76291;DHT22;65100;46.884;17.410;2023-06-14T00:59:42;11.70;77.63
76291;DHT22;65100;46.884;17.410;2023-06-14T01:02:08;11.52;78.82
76291;DHT22;65100;46.884;17.410;2023-06-14T01:04:34;11.58;79.35
76291;DHT22;65100;46.884;17.410;2023-06-14T01:10:03;11.61;79.19
76291;DHT22;65100;46.884;17.410;2023-06-14T01:13:01;11.56;78.75
76291;DHT22;65100;46.884;17.410;2023-06-14T01:15:30;11.54;78.82
76291;DHT22;65100;46.884;17.410;2023-06-14T01:17:56;11.56;78.64
76291;DHT22;65100;46.884;17.410;2023-06-14T01:20:29;11.56;79.13
76291;DHT22;65100;46.884;17.410;2023-06-14T01:22:56;11.63;79.05
76291;DHT22;65100;46.884;17.410;2023-06-14T01:25:22;11.69;78.07
76291;DHT22;65100;46.884;17.410;2023-06-14T01:27:50;11.58;78.30
76291;DHT22;65100;46.884;17.410;2023-06-14T01:30:17;11.21;79.54
76291;DHT22;65100;46.884;17.410;2023-06-14T01:32:43;10.98;80.89
76291;DHT22;65100;46.884;17.410;2023-06-14T01:35:09;11.38;79.81
76291;DHT22;65100;46.884;17.410;2023-06-14T01:37:34;11.54;78.59
76291;DHT22;65100;46.884;17.410;2023-06-14T01:40:04;11.24;79.60
76291;DHT22;65100;46.884;17.410;2023-06-14T01:42:33;10.78;81.97
76291;DHT22;65100;46.884;17.410;2023-06-14T01:45:00;11.40;79.89
76291;DHT22;65100;46.884;17.410;2023-06-14T01:47:26;11.42;80.52
76291;DHT22;65100;46.884;17.410;2023-06-14T01:49:52;11.56;80.14
76291;DHT22;65100;46.884;17.410;2023-06-14T01:52:17;11.42;79.24
76291;DHT22;65100;46.884;17.410;2023-06-14T01:54:44;11.21;79.27
76291;DHT22;65100;46.884;17.410;2023-06-14T01:57:11;11.35;79.87
76291;DHT22;65100;46.884;17.410;2023-06-14T01:59:37;11.31;78.77
76291;DHT22;65100;46.884;17.410;2023-06-14T02:02:03;11.26;79.18
76291;DHT22;65100;46.884;17.410;2023-06-14T02:04:28;11.18;79.06
76291;DHT22;65100;46.884;17.410;2023-06-14T02:06:54;11.18;79.44
76291;DHT22;65100;46.884;17.410;2023-06-14T02:09:19;10.92;80.35
76291;DHT22;65100;46.884;17.410;2023-06-14T02:11:45;10.95;80.71
76291;DHT22;65100;46.884;17.410;2023-06-14T02:14:10;11.36;79.44
76291;DHT22;65100;46.884;17.410;2023-06-14T02:16:37;11.22;80.50
76291;DHT22;65100;46.884;17.410;2023-06-14T02:19:06;11.10;81.32
76291;DHT22;65100;46.884;17.410;2023-06-14T02:21:32;11.75;80.70
76291;DHT22;65100;46.884;17.410;2023-06-14T02:23:57;11.80;79.49
76291;DHT22;65100;46.884;17.410;2023-06-14T02:26:23;11.94;79.43
76291;DHT22;65100;46.884;17.410;2023-06-14T02:28:49;11.93;78.52
76291;DHT22;65100;46.884;17.410;2023-06-14T02:31:14;11.99;78.94
76291;DHT22;65100;46.884;17.410;2023-06-14T02:33:41;11.96;78.32
76291;DHT22;65100;46.884;17.410;2023-06-14T02:36:06;11.59;79.37
76291;DHT22;65100;46.884;17.410;2023-06-14T02:38:32;11.69;80.32
76291;DHT22;65100;46.884;17.410;2023-06-14T02:40:58;11.78;79.81
76291;DHT22;65100;46.884;17.410;2023-06-14T02:43:24;11.83;79.95
76291;DHT22;65100;46.884;17.410;2023-06-14T02:45:50;11.75;80.07
76291;DHT22;65100;46.884;17.410;2023-06-14T02:48:15;11.73;79.46
76291;DHT22;65100;46.884;17.410;2023-06-14T02:50:41;11.78;79.41
76291;DHT22;65100;46.884;17.410;2023-06-14T02:53:07;11.59;80.11
76291;DHT22;65100;46.884;17.410;2023-06-14T02:55:32;11.34;80.24
76291;DHT22;65100;46.884;17.410;2023-06-14T02:57:57;11.26;80.81
76291;DHT22;65100;46.884;17.410;2023-06-14T03:00:23;11.70;80.04
76291;DHT22;65100;46.884;17.410;2023-06-14T03:02:49;11.72;79.43
76291;DHT22;65100;46.884;17.410;2023-06-14T03:05:16;11.68;79.50
76291;DHT22;65100;46.884;17.410;2023-06-14T03:07:46;11.61;79.71
76291;DHT22;65100;46.884;17.410;2023-06-14T03:10:12;11.59;79.95
76291;DHT22;65100;46.884;17.410;2023-06-14T03:12:38;11.76;80.28
76291;DHT22;65100;46.884;17.410;2023-06-14T03:15:04;12.03;79.58
76291;DHT22;65100;46.884;17.410;2023-06-14T03:17:30;12.13;79.89
76291;DHT22;65100;46.884;17.410;2023-06-14T03:19:59;11.94;80.21
76291;DHT22;65100;46.884;17.410;2023-06-14T03:22:25;12.00;80.69
76291;DHT22;65100;46.884;17.410;2023-06-14T03:24:51;12.09;80.79
76291;DHT22;65100;46.884;17.410;2023-06-14T03:27:17;11.48;81.40
76291;DHT22;65100;46.884;17.410;2023-06-14T03:29:43;11.61;83.74
76291;DHT22;65100;46.884;17.410;2023-06-14T03:32:09;12.38;80.50
76291;DHT22;65100;46.884;17.410;2023-06-14T03:34:35;12.73;78.19
76291;DHT22;65100;46.884;17.410;2023-06-14T03:37:00;13.05;77.55
76291;DHT22;65100;46.884;17.410;2023-06-14T03:39:26;13.36;76.42
76291;DHT22;65100;46.884;17.410;2023-06-14T03:41:51;13.77;74.93
76291;DHT22;65100;46.884;17.410;2023-06-14T03:44:18;14.05;73.58
76291;DHT22;65100;46.884;17.410;2023-06-14T03:46:45;14.21;72.55
76291;DHT22;65100;46.884;17.410;2023-06-14T03:49:11;14.34;73.21
76291;DHT22;65100;46.884;17.410;2023-06-14T03:51:36;14.29;73.90
76291;DHT22;65100;46.884;17.410;2023-06-14T03:54:02;14.41;74.00
76291;DHT22;65100;46.884;17.410;2023-06-14T03:56:27;14.61;74.58
76291;DHT22;65100;46.884;17.410;2023-06-14T03:58:53;15.05;74.47
76291;DHT22;65100;46.884;17.410;2023-06-14T04:01:18;15.02;74.50
76291;DHT22;65100;46.884;17.410;2023-06-14T04:03:44;14.63;75.42
76291;DHT22;65100;46.884;17.410;2023-06-14T04:06:09;14.20;75.09
76291;DHT22;65100;46.884;17.410;2023-06-14T04:08:35;14.48;76.15
76291;DHT22;65100;46.884;17.410;2023-06-14T04:11:01;14.88;76.51
76291;DHT22;65100;46.884;17.410;2023-06-14T04:13:26;14.98;76.36
76291;DHT22;65100;46.884;17.410;2023-06-14T04:15:52;14.74;76.47
76291;DHT22;65100;46.884;17.410;2023-06-14T04:18:18;14.34;78.47
76291;DHT22;65100;46.884;17.410;2023-06-14T04:20:44;14.34;78.72
76291;DHT22;65100;46.884;17.410;2023-06-14T04:23:15;14.50;79.41
76291;DHT22;65100;46.884;17.410;2023-06-14T04:25:41;14.64;79.22
76291;DHT22;65100;46.884;17.410;2023-06-14T04:28:10;14.70;79.11
76291;DHT22;65100;46.884;17.410;2023-06-14T04:30:36;14.40;79.85
76291;DHT22;65100;46.884;17.410;2023-06-14T04:33:04;14.36;80.96
76291;DHT22;65100;46.884;17.410;2023-06-14T04:35:31;14.16;80.65
76291;DHT22;65100;46.884;17.410;2023-06-14T04:37:58;14.06;81.19
76291;DHT22;65100;46.884;17.410;2023-06-14T04:40:23;13.85;82.01
76291;DHT22;65100;46.884;17.410;2023-06-14T04:42:49;13.87;81.80
76291;DHT22;65100;46.884;17.410;2023-06-14T04:45:16;13.99;81.76
76291;DHT22;65100;46.884;17.410;2023-06-14T04:47:42;14.50;79.33
76291;DHT22;65100;46.884;17.410;2023-06-14T04:50:09;14.65;78.21
76291;DHT22;65100;46.884;17.410;2023-06-14T04:52:36;14.67;78.45
76291;DHT22;65100;46.884;17.410;2023-06-14T04:55:02;14.43;79.34
76291;DHT22;65100;46.884;17.410;2023-06-14T04:57:28;15.22;78.82
76291;DHT22;65100;46.884;17.410;2023-06-14T04:59:54;15.29;78.75
76291;DHT22;65100;46.884;17.410;2023-06-14T05:02:23;15.55;79.50
76291;DHT22;65100;46.884;17.410;2023-06-14T05:04:50;15.69;79.06
76291;DHT22;65100;46.884;17.410;2023-06-14T05:07:15;16.33;77.96
76291;DHT22;65100;46.884;17.410;2023-06-14T05:09:41;16.54;76.75
76291;DHT22;65100;46.884;17.410;2023-06-14T05:12:07;16.65;75.67
76291;DHT22;65100;46.884;17.410;2023-06-14T05:14:36;16.71;74.96
76291;DHT22;65100;46.884;17.410;2023-06-14T05:17:02;16.67;74.93
76291;DHT22;65100;46.884;17.410;2023-06-14T05:19:30;16.74;74.28
76291;DHT22;65100;46.884;17.410;2023-06-14T05:21:56;16.70;72.18
76291;DHT22;65100;46.884;17.410;2023-06-14T05:24:22;16.61;73.26
76291;DHT22;65100;46.884;17.410;2023-06-14T05:26:47;16.31;73.41
76291;DHT22;65100;46.884;17.410;2023-06-14T05:29:14;15.95;74.62
76291;DHT22;65100;46.884;17.410;2023-06-14T05:31:39;16.05;76.63
76291;DHT22;65100;46.884;17.410;2023-06-14T05:34:05;16.30;72.97
76291;DHT22;65100;46.884;17.410;2023-06-14T05:36:30;16.44;72.56
76291;DHT22;65100;46.884;17.410;2023-06-14T05:38:56;16.26;73.13
76291;DHT22;65100;46.884;17.410;2023-06-14T05:41:28;16.21;74.77
76291;DHT22;65100;46.884;17.410;2023-06-14T05:43:55;16.30;76.02
76291;DHT22;65100;46.884;17.410;2023-06-14T05:46:21;16.19;76.60
76291;DHT22;65100;46.884;17.410;2023-06-14T05:48:50;16.53;74.67
76291;DHT22;65100;46.884;17.410;2023-06-14T05:51:15;16.71;74.42
76291;DHT22;65100;46.884;17.410;2023-06-14T05:54:04;16.60;74.39
76291;DHT22;65100;46.884;17.410;2023-06-14T05:56:50;16.33;75.80
76291;DHT22;65100;46.884;17.410;2023-06-14T05:59:15;16.34;74.71
76291;DHT22;65100;46.884;17.410;2023-06-14T06:01:41;16.53;72.04
76291;DHT22;65100;46.884;17.410;2023-06-14T06:04:07;16.70;72.55
76291;DHT22;65100;46.884;17.410;2023-06-14T06:06:32;16.85;71.77
76291;DHT22;65100;46.884;17.410;2023-06-14T06:08:58;16.74;71.69
76291;DHT22;65100;46.884;17.410;2023-06-14T06:11:23;17.00;72.14
76291;DHT22;65100;46.884;17.410;2023-06-14T06:13:49;16.88;72.41
76291;DHT22;65100;46.884;17.410;2023-06-14T06:16:14;17.15;73.40
76291;DHT22;65100;46.884;17.410;2023-06-14T06:18:40;16.98;74.73
76291;DHT22;65100;46.884;17.410;2023-06-14T06:21:06;17.36;74.87
76291;DHT22;65100;46.884;17.410;2023-06-14T06:23:31;17.55;74.35
76291;DHT22;65100;46.884;17.410;2023-06-14T06:25:57;17.69;73.97
76291;DHT22;65100;46.884;17.410;2023-06-14T06:28:22;17.82;73.89
76291;DHT22;65100;46.884;17.410;2023-06-14T06:30:48;17.92;74.09
76291;DHT22;65100;46.884;17.410;2023-06-14T06:33:13;17.97;73.17
76291;DHT22;65100;46.884;17.410;2023-06-14T06:35:39;18.07;73.57
76291;DHT22;65100;46.884;17.410;2023-06-14T06:38:05;18.59;73.80
76291;DHT22;65100;46.884;17.410;2023-06-14T06:40:31;19.08;72.61
76291;DHT22;65100;46.884;17.410;2023-06-14T06:42:56;19.97;70.75
76291;DHT22;65100;46.884;17.410;2023-06-14T06:45:21;19.78;69.49
76291;DHT22;65100;46.884;17.410;2023-06-14T06:47:48;20.19;68.06
76291;DHT22;65100;46.884;17.410;2023-06-14T06:50:14;20.77;67.14
76291;DHT22;65100;46.884;17.410;2023-06-14T06:52:39;20.97;67.36
76291;DHT22;65100;46.884;17.410;2023-06-14T06:55:05;21.14;66.67
76291;DHT22;65100;46.884;17.410;2023-06-14T06:57:31;20.02;68.44
76291;DHT22;65100;46.884;17.410;2023-06-14T06:59:57;20.13;68.11
76291;DHT22;65100;46.884;17.410;2023-06-14T07:02:22;20.20;67.76
76291;DHT22;65100;46.884;17.410;2023-06-14T07:04:48;20.25;66.58
76291;DHT22;65100;46.884;17.410;2023-06-14T07:07:13;20.15;66.32
76291;DHT22;65100;46.884;17.410;2023-06-14T07:09:39;20.25;65.61
76291;DHT22;65100;46.884;17.410;2023-06-14T07:12:07;20.02;66.72
76291;DHT22;65100;46.884;17.410;2023-06-14T07:14:33;20.25;65.44
76291;DHT22;65100;46.884;17.410;2023-06-14T07:16:58;20.46;65.61
76291;DHT22;65100;46.884;17.410;2023-06-14T07:19:24;20.13;65.69
76291;DHT22;65100;46.884;17.410;2023-06-14T07:21:49;19.97;65.57
76291;DHT22;65100;46.884;17.410;2023-06-14T07:24:15;21.18;65.63
76291;DHT22;65100;46.884;17.410;2023-06-14T07:26:41;22.06;63.48
76291;DHT22;65100;46.884;17.410;2023-06-14T07:29:06;22.50;60.27
76291;DHT22;65100;46.884;17.410;2023-06-14T07:31:32;22.47;59.15
76291;DHT22;65100;46.884;17.410;2023-06-14T07:33:57;21.92;60.92
76291;DHT22;65100;46.884;17.410;2023-06-14T07:36:22;22.47;60.26
76291;DHT22;65100;46.884;17.410;2023-06-14T07:38:48;22.53;60.72
76291;DHT22;65100;46.884;17.410;2023-06-14T07:41:13;22.80;58.21
76291;DHT22;65100;46.884;17.410;2023-06-14T07:43:39;23.24;56.53
76291;DHT22;65100;46.884;17.410;2023-06-14T07:46:05;23.37;57.92
76291;DHT22;65100;46.884;17.410;2023-06-14T07:48:30;23.35;56.85
76291;DHT22;65100;46.884;17.410;2023-06-14T07:50:56;23.65;56.91
76291;DHT22;65100;46.884;17.410;2023-06-14T07:53:21;23.88;55.52
76291;DHT22;65100;46.884;17.410;2023-06-14T07:55:47;24.01;55.03
76291;DHT22;65100;46.884;17.410;2023-06-14T07:58:13;23.65;52.41
76291;DHT22;65100;46.884;17.410;2023-06-14T08:00:39;23.01;53.78
76291;DHT22;65100;46.884;17.410;2023-06-14T08:03:04;22.36;56.53
76291;DHT22;65100;46.884;17.410;2023-06-14T08:05:30;22.12;56.82
76291;DHT22;65100;46.884;17.410;2023-06-14T08:07:55;22.16;56.45
76291;DHT22;65100;46.884;17.410;2023-06-14T08:10:22;22.46;57.47
76291;DHT22;65100;46.884;17.410;2023-06-14T08:12:48;22.61;56.47
76291;DHT22;65100;46.884;17.410;2023-06-14T08:15:15;22.91;56.55
76291;DHT22;65100;46.884;17.410;2023-06-14T08:17:42;22.64;56.14
76291;DHT22;65100;46.884;17.410;2023-06-14T08:20:09;22.90;57.24
76291;DHT22;65100;46.884;17.410;2023-06-14T08:22:36;22.86;55.81
76291;DHT22;65100;46.884;17.410;2023-06-14T08:25:01;22.80;56.68
76291;DHT22;65100;46.884;17.410;2023-06-14T08:27:27;23.00;57.41
76291;DHT22;65100;46.884;17.410;2023-06-14T08:29:53;23.08;56.05
76291;DHT22;65100;46.884;17.410;2023-06-14T08:32:18;22.71;55.72
76291;DHT22;65100;46.884;17.410;2023-06-14T08:34:44;22.67;56.06
76291;DHT22;65100;46.884;17.410;2023-06-14T08:37:09;23.15;56.47
76291;DHT22;65100;46.884;17.410;2023-06-14T08:39:35;23.14;54.63
76291;DHT22;65100;46.884;17.410;2023-06-14T08:42:02;23.55;54.09
76291;DHT22;65100;46.884;17.410;2023-06-14T08:44:29;23.66;52.85
76291;DHT22;65100;46.884;17.410;2023-06-14T08:46:59;23.88;53.54
76291;DHT22;65100;46.884;17.410;2023-06-14T08:49:25;23.32;52.93
76291;DHT22;65100;46.884;17.410;2023-06-14T08:51:58;23.92;52.27
76291;DHT22;65100;46.884;17.410;2023-06-14T08:54:27;23.85;52.03
76291;DHT22;65100;46.884;17.410;2023-06-14T08:56:54;24.10;52.02
76291;DHT22;65100;46.884;17.410;2023-06-14T08:59:24;23.50;52.52
76291;DHT22;65100;46.884;17.410;2023-06-14T09:01:51;23.50;53.27
76291;DHT22;65100;46.884;17.410;2023-06-14T09:04:18;24.04;52.92
76291;DHT22;65100;46.884;17.410;2023-06-14T09:06:45;23.85;51.72
76291;DHT22;65100;46.884;17.410;2023-06-14T09:09:10;23.50;51.91
76291;DHT22;65100;46.884;17.410;2023-06-14T09:11:36;23.34;52.77
76291;DHT22;65100;46.884;17.410;2023-06-14T09:14:02;23.50;52.32
76291;DHT22;65100;46.884;17.410;2023-06-14T09:16:27;23.31;49.98
76291;DHT22;65100;46.884;17.410;2023-06-14T09:18:53;23.96;50.66
76291;DHT22;65100;46.884;17.410;2023-06-14T09:21:19;24.23;47.92
76291;DHT22;65100;46.884;17.410;2023-06-14T09:23:47;23.66;47.80
76291;DHT22;65100;46.884;17.410;2023-06-14T09:26:15;23.86;49.13
76291;DHT22;65100;46.884;17.410;2023-06-14T09:28:48;24.33;47.71
76291;DHT22;65100;46.884;17.410;2023-06-14T09:31:16;24.53;48.90
76291;DHT22;65100;46.884;17.410;2023-06-14T09:33:43;24.67;47.94
76291;DHT22;65100;46.884;17.410;2023-06-14T09:36:15;24.42;45.67
76291;DHT22;65100;46.884;17.410;2023-06-14T09:38:41;23.94;48.80
76291;DHT22;65100;46.884;17.410;2023-06-14T09:41:06;23.71;49.16
76291;DHT22;65100;46.884;17.410;2023-06-14T09:43:33;23.90;50.43
76291;DHT22;65100;46.884;17.410;2023-06-14T09:46:00;23.81;49.28
76291;DHT22;65100;46.884;17.410;2023-06-14T09:48:26;23.76;49.78
76291;DHT22;65100;46.884;17.410;2023-06-14T09:50:52;23.57;48.65
76291;DHT22;65100;46.884;17.410;2023-06-14T09:53:21;23.48;48.21
76291;DHT22;65100;46.884;17.410;2023-06-14T09:55:51;23.03;49.50
76291;DHT22;65100;46.884;17.410;2023-06-14T09:58:20;23.06;49.57
76291;DHT22;65100;46.884;17.410;2023-06-14T10:00:47;22.80;48.78
76291;DHT22;65100;46.884;17.410;2023-06-14T10:03:28;22.63;48.57
76291;DHT22;65100;46.884;17.410;2023-06-14T10:05:55;22.98;48.36
76291;DHT22;65100;46.884;17.410;2023-06-14T10:08:27;23.34;49.87
76291;DHT22;65100;46.884;17.410;2023-06-14T10:10:55;23.64;46.12
76291;DHT22;65100;46.884;17.410;2023-06-14T10:13:21;23.59;46.99
76291;DHT22;65100;46.884;17.410;2023-06-14T10:18:53;23.48;48.28
76291;DHT22;65100;46.884;17.410;2023-06-14T10:24:13;23.54;48.36
76291;DHT22;65100;46.884;17.410;2023-06-14T10:26:51;23.31;52.34
76291;DHT22;65100;46.884;17.410;2023-06-14T10:29:17;23.35;54.40
76291;DHT22;65100;46.884;17.410;2023-06-14T10:31:48;23.28;54.85
76291;DHT22;65100;46.884;17.410;2023-06-14T10:34:24;23.17;55.17
76291;DHT22;65100;46.884;17.410;2023-06-14T10:37:20;23.07;56.74
76291;DHT22;65100;46.884;17.410;2023-06-14T10:39:46;22.86;57.75
76291;DHT22;65100;46.884;17.410;2023-06-14T10:42:12;22.70;57.44
76291;DHT22;65100;46.884;17.410;2023-06-14T10:44:43;22.56;58.87
76291;DHT22;65100;46.884;17.410;2023-06-14T10:49:57;22.36;60.32
76291;DHT22;65100;46.884;17.410;2023-06-14T10:52:28;22.06;60.03
76291;DHT22;65100;46.884;17.410;2023-06-14T10:55:05;21.93;61.06
76291;DHT22;65100;46.884;17.410;2023-06-14T10:57:34;22.14;61.41
76291;DHT22;65100;46.884;17.410;2023-06-14T11:00:01;22.13;60.52
76291;DHT22;65100;46.884;17.410;2023-06-14T11:10:44;21.90;61.86
76291;DHT22;65100;46.884;17.410;2023-06-14T11:13:24;21.72;61.86
76291;DHT22;65100;46.884;17.410;2023-06-14T11:15:50;21.55;61.90
76291;DHT22;65100;46.884;17.410;2023-06-14T11:18:18;21.34;61.64
76291;DHT22;65100;46.884;17.410;2023-06-14T11:20:46;21.23;61.57
76291;DHT22;65100;46.884;17.410;2023-06-14T11:23:11;21.11;62.28
76291;DHT22;65100;46.884;17.410;2023-06-14T11:25:37;21.10;63.82
76291;DHT22;65100;46.884;17.410;2023-06-14T11:28:02;21.05;64.19
76291;DHT22;65100;46.884;17.410;2023-06-14T11:30:28;20.97;63.54
76291;DHT22;65100;46.884;17.410;2023-06-14T11:32:55;20.97;64.43
76291;DHT22;65100;46.884;17.410;2023-06-14T11:35:22;21.07;64.26
76291;DHT22;65100;46.884;17.410;2023-06-14T11:37:52;21.00;63.58
76291;DHT22;65100;46.884;17.410;2023-06-14T11:40:17;20.98;64.70
76291;DHT22;65100;46.884;17.410;2023-06-14T11:42:43;20.79;63.97
76291;DHT22;65100;46.884;17.410;2023-06-14T11:45:10;20.66;64.03
76291;DHT22;65100;46.884;17.410;2023-06-14T11:47:38;20.60;64.36
76291;DHT22;65100;46.884;17.410;2023-06-14T11:50:06;20.47;64.54
76291;DHT22;65100;46.884;17.410;2023-06-14T11:52:33;20.32;65.41
76291;DHT22;65100;46.884;17.410;2023-06-14T11:54:59;20.13;66.15
76291;DHT22;65100;46.884;17.410;2023-06-14T11:57:25;20.08;66.58
76291;DHT22;65100;46.884;17.410;2023-06-14T11:59:51;19.92;66.43
76291;DHT22;65100;46.884;17.410;2023-06-14T12:02:18;19.76;66.12
76291;DHT22;65100;46.884;17.410;2023-06-14T12:04:47;19.69;67.26
76291;DHT22;65100;46.884;17.410;2023-06-14T12:07:17;19.72;67.62
76291;DHT22;65100;46.884;17.410;2023-06-14T12:12:21;19.57;68.53
76291;DHT22;65100;46.884;17.410;2023-06-14T12:14:47;19.58;69.16
76291;DHT22;65100;46.884;17.410;2023-06-14T12:17:12;19.48;68.95
76291;DHT22;65100;46.884;17.410;2023-06-14T12:19:42;19.24;69.27
76291;DHT22;65100;46.884;17.410;2023-06-14T12:22:09;19.28;70.59
76291;DHT22;65100;46.884;17.410;2023-06-14T12:24:35;19.31;71.51
76291;DHT22;65100;46.884;17.410;2023-06-14T12:27:00;19.31;72.14
76291;DHT22;65100;46.884;17.410;2023-06-14T12:29:29;19.22;73.37
76291;DHT22;65100;46.884;17.410;2023-06-14T12:31:54;19.25;74.12
76291;DHT22;65100;46.884;17.410;2023-06-14T12:34:25;19.18;74.31
76291;DHT22;65100;46.884;17.410;2023-06-14T12:36:53;19.04;73.72
76291;DHT22;65100;46.884;17.410;2023-06-14T12:39:19;18.98;72.85
76291;DHT22;65100;46.884;17.410;2023-06-14T12:41:45;18.95;73.11
76291;DHT22;65100;46.884;17.410;2023-06-14T12:44:11;18.98;72.92
76291;DHT22;65100;46.884;17.410;2023-06-14T12:46:37;18.95;73.22
76291;DHT22;65100;46.884;17.410;2023-06-14T12:49:05;18.93;73.18
76291;DHT22;65100;46.884;17.410;2023-06-14T12:51:30;18.95;72.75
76291;DHT22;65100;46.884;17.410;2023-06-14T12:53:56;18.95;72.60
76291;DHT22;65100;46.884;17.410;2023-06-14T12:56:21;18.97;72.54
76291;DHT22;65100;46.884;17.410;2023-06-14T12:58:47;19.01;72.59
76291;DHT22;65100;46.884;17.410;2023-06-14T13:01:12;19.08;72.59
76291;DHT22;65100;46.884;17.410;2023-06-14T13:03:38;19.07;72.28
76291;DHT22;65100;46.884;17.410;2023-06-14T13:06:03;19.14;71.31
76291;DHT22;65100;46.884;17.410;2023-06-14T13:08:29;19.27;72.05
76291;DHT22;65100;46.884;17.410;2023-06-14T13:10:55;19.32;71.97
76291;DHT22;65100;46.884;17.410;2023-06-14T13:13:21;19.29;71.51
76291;DHT22;65100;46.884;17.410;2023-06-14T13:15:46;19.52;71.79
76291;DHT22;65100;46.884;17.410;2023-06-14T13:18:12;19.49;72.14
76291;DHT22;65100;46.884;17.410;2023-06-14T13:20:41;19.61;71.29
76291;DHT22;65100;46.884;17.410;2023-06-14T13:23:28;19.72;71.48
76291;DHT22;65100;46.884;17.410;2023-06-14T13:25:53;19.90;69.77
76291;DHT22;65100;46.884;17.410;2023-06-14T13:28:19;19.89;69.71
76291;DHT22;65100;46.884;17.410;2023-06-14T13:30:46;20.20;68.14
76291;DHT22;65100;46.884;17.410;2023-06-14T13:33:11;20.58;68.07
76291;DHT22;65100;46.884;17.410;2023-06-14T13:35:37;20.87;65.73
76291;DHT22;65100;46.884;17.410;2023-06-14T13:38:02;20.98;65.98
76291;DHT22;65100;46.884;17.410;2023-06-14T13:40:28;21.07;64.91
76291;DHT22;65100;46.884;17.410;2023-06-14T13:42:53;21.20;64.59
76291;DHT22;65100;46.884;17.410;2023-06-14T13:45:18;21.30;64.11
76291;DHT22;65100;46.884;17.410;2023-06-14T13:47:44;21.35;64.30
76291;DHT22;65100;46.884;17.410;2023-06-14T13:50:13;21.32;62.80
76291;DHT22;65100;46.884;17.410;2023-06-14T13:52:39;21.58;62.06
76291;DHT22;65100;46.884;17.410;2023-06-14T13:55:04;21.79;60.49
76291;DHT22;65100;46.884;17.410;2023-06-14T13:57:30;21.83;60.78
76291;DHT22;65100;46.884;17.410;2023-06-14T13:59:56;21.79;61.21
76291;DHT22;65100;46.884;17.410;2023-06-14T14:02:26;21.59;58.84
76291;DHT22;65100;46.884;17.410;2023-06-14T14:04:52;21.56;60.39
76291;DHT22;65100;46.884;17.410;2023-06-14T14:07:18;21.65;57.81
76291;DHT22;65100;46.884;17.410;2023-06-14T14:09:45;21.89;58.34
76291;DHT22;65100;46.884;17.410;2023-06-14T14:12:11;22.00;59.12
76291;DHT22;65100;46.884;17.410;2023-06-14T14:14:37;22.14;57.62
76291;DHT22;65100;46.884;17.410;2023-06-14T14:17:02;22.26;55.98
76291;DHT22;65100;46.884;17.410;2023-06-14T14:19:28;22.36;57.69
76291;DHT22;65100;46.884;17.410;2023-06-14T14:21:53;22.46;58.06
76291;DHT22;65100;46.884;17.410;2023-06-14T14:24:19;22.52;58.05
76291;DHT22;65100;46.884;17.410;2023-06-14T14:26:44;22.61;56.76
76291;DHT22;65100;46.884;17.410;2023-06-14T14:29:12;22.70;57.18
76291;DHT22;65100;46.884;17.410;2023-06-14T14:31:38;22.76;55.47
76291;DHT22;65100;46.884;17.410;2023-06-14T14:34:03;22.81;54.64
76291;DHT22;65100;46.884;17.410;2023-06-14T14:36:29;22.87;56.74
76291;DHT22;65100;46.884;17.410;2023-06-14T14:38:55;22.76;56.35
76291;DHT22;65100;46.884;17.410;2023-06-14T14:41:20;22.66;55.84
76291;DHT22;65100;46.884;17.410;2023-06-14T14:43:46;22.57;53.86
76291;DHT22;65100;46.884;17.410;2023-06-14T14:46:11;22.61;56.13
76291;DHT22;65100;46.884;17.410;2023-06-14T14:48:37;22.53;55.34
76291;DHT22;65100;46.884;17.410;2023-06-14T14:51:02;22.56;56.51
76291;DHT22;65100;46.884;17.410;2023-06-14T14:53:28;22.50;53.63
76291;DHT22;65100;46.884;17.410;2023-06-14T14:55:54;22.47;53.98
76291;DHT22;65100;46.884;17.410;2023-06-14T14:58:19;22.52;53.65
76291;DHT22;65100;46.884;17.410;2023-06-14T15:00:45;22.64;56.06
76291;DHT22;65100;46.884;17.410;2023-06-14T15:03:11;22.80;50.47
76291;DHT22;65100;46.884;17.410;2023-06-14T15:05:36;22.87;50.89
76291;DHT22;65100;46.884;17.410;2023-06-14T15:08:03;22.83;51.60
76291;DHT22;65100;46.884;17.410;2023-06-14T15:10:28;22.68;51.18
76291;DHT22;65100;46.884;17.410;2023-06-14T15:12:54;22.68;50.88
76291;DHT22;65100;46.884;17.410;2023-06-14T15:15:19;22.66;52.10
76291;DHT22;65100;46.884;17.410;2023-06-14T15:17:45;22.66;52.22
76291;DHT22;65100;46.884;17.410;2023-06-14T15:20:11;22.70;51.49
76291;DHT22;65100;46.884;17.410;2023-06-14T15:22:38;22.71;48.10
76291;DHT22;65100;46.884;17.410;2023-06-14T15:25:03;22.80;50.71
76291;DHT22;65100;46.884;17.410;2023-06-14T15:27:29;22.98;46.76
76291;DHT22;65100;46.884;17.410;2023-06-14T15:29:54;23.15;46.18
76291;DHT22;65100;46.884;17.410;2023-06-14T15:32:20;23.11;45.55
76291;DHT22;65100;46.884;17.410;2023-06-14T15:34:47;23.21;45.01